Time;durP1;ratioP1;P1;durP2;ratioP2;P2;SDS_P1;SDS_P2;PMS_P1;PMS_P2;Temp;Humidity;BMP_temperature;BMP_pressure;BME280_temperature;BME280_humidity;BME280_pressure;Samples;Min_cycle;Max_cycle;Signal;HPM_P1;HPM_P2
2021/09/20 00:00:06;;;;;;;;;;;14.90;99.90;15.30;99637.00;;;;340634;28;82626;-90
2021/09/20 00:00:18;;;;;;;;;;;14.90;99.90;15.30;99645.00;;;;341549;28;91666;-90
2021/09/20 00:00:29;;;;;;;;;;;14.90;99.90;15.20;99643.00;;;;346100;28;83445;-90
2021/09/20 00:00:42;;;;;;;;;;;14.90;99.90;15.10;99640.00;;;;342903;28;92104;-89
2021/09/20 00:00:54;;;;;;;;;;;14.90;99.90;15.00;99641.00;;;;343486;28;82609;-90
2021/09/20 00:01:06;;;;;;;;;;;14.90;99.90;15.00;99645.00;;;;345753;28;91483;-89
2021/09/20 00:01:18;;;;;;;;;;;14.90;99.90;15.10;99636.00;;;;344869;28;82481;-90
2021/09/20 00:01:29;;;;;;;;;;;14.90;99.90;15.00;99634.00;;;;343021;28;90448;-89
2021/09/20 00:01:41;;;;;;;;;;;14.90;99.90;15.00;99633.00;;;;342117;28;83284;-90
2021/09/20 00:01:54;;;;;;;;;;;14.90;99.90;15.00;99638.00;;;;343133;28;88568;-90
2021/09/20 00:02:06;;;;;;;;;;;14.90;99.90;14.90;99642.00;;;;340952;28;83357;-90
2021/09/20 00:02:18;;;;;;;;;;;14.90;99.90;15.00;99638.00;;;;341692;28;90616;-90
2021/09/20 00:02:30;;;;;;;;;;;14.90;99.90;15.00;99640.00;;;;343456;28;83380;-89
2021/09/20 00:02:43;;;;;;;;;;;14.90;99.90;15.00;99636.00;;;;344245;28;92918;-89
2021/09/20 00:02:55;;;;;;;;;;;14.90;99.90;15.00;99629.00;;;;342065;28;82576;-89
2021/09/20 00:03:07;;;;;;;;;;;14.90;99.90;14.90;99634.00;;;;340361;28;88990;-90
2021/09/20 00:03:19;;;;;;;;;;;14.90;99.90;14.90;99638.00;;;;340740;28;82543;-89
2021/09/20 00:03:31;;;;;;;;;;;14.90;99.90;14.90;99631.00;;;;343084;28;89821;-90
2021/09/20 00:03:43;;;;;;;;;;;14.90;99.90;14.90;99639.00;;;;342049;28;83245;-90
2021/09/20 00:03:55;;;;;;;;;;;14.80;99.90;14.90;99637.00;;;;338960;28;91490;-89
2021/09/20 00:04:07;;;;;;;;;;;14.80;99.90;14.90;99633.00;;;;341960;28;82566;-90
2021/09/20 00:04:19;;;;;;;;;;;14.80;99.90;14.90;99630.00;;;;341573;28;88978;-90
2021/09/20 00:04:31;;;;;;;;;;;14.80;99.90;14.90;99635.00;;;;339477;28;82441;-90
2021/09/20 00:04:43;;;;;;;;;;;14.80;99.90;15.00;99628.00;;;;341435;28;92345;-89
2021/09/20 00:04:55;;;;;;;;;;;14.80;99.90;15.00;99632.00;;;;342091;28;83346;-90
2021/09/20 00:05:07;;;;;;;;;;;14.80;99.90;15.10;99624.00;;;;340433;28;90446;-90
2021/09/20 00:05:19;;;;;;;;;;;14.80;99.90;15.10;99621.00;;;;342047;28;83370;-90
2021/09/20 00:05:31;;;;;;;;;;;14.80;99.90;15.20;99634.00;;;;343022;28;90854;-90
2021/09/20 00:05:43;;;;;;;;;;;14.80;99.90;15.20;99628.00;;;;344870;28;83325;-90
2021/09/20 00:05:55;;;;;;;;;;;14.80;99.90;15.20;99626.00;;;;342996;28;91709;-89
2021/09/20 00:06:07;;;;;;;;;;;14.80;99.90;15.10;99622.00;;;;342038;28;83433;-90
2021/09/20 00:06:18;;;;;;;;;;;14.80;99.90;15.10;99625.00;;;;344413;28;90551;-89
2021/09/20 00:06:30;;;;;;;;;;;14.80;99.90;15.10;99628.00;;;;344816;28;83425;-89
2021/09/20 00:06:42;;;;;;;;;;;14.80;99.90;15.10;99629.00;;;;342884;28;92493;-90
2021/09/20 00:06:54;;;;;;;;;;;14.80;99.90;15.00;99630.00;;;;343460;28;82549;-90
2021/09/20 00:07:05;;;;;;;;;;;14.80;99.90;15.00;99629.00;;;;344320;28;91238;-90
2021/09/20 00:07:17;;;;;;;;;;;14.80;99.90;15.00;99633.00;;;;343494;28;83380;-89
2021/09/20 00:07:29;;;;;;;;;;;14.80;99.90;14.90;99629.00;;;;344389;28;90550;-90
2021/09/20 00:07:41;;;;;;;;;;;14.80;99.90;15.00;99634.00;;;;342125;28;83359;-90
2021/09/20 00:07:53;;;;;;;;;;;14.80;99.90;15.00;99624.00;;;;343086;28;89998;-91
2021/09/20 00:08:05;;;;;;;;;;;14.80;99.90;15.00;99633.00;;;;342419;28;83590;-90
2021/09/20 00:08:17;;;;;;;;;;;14.80;99.90;15.00;99629.00;;;;342931;28;89151;-90
2021/09/20 00:08:28;;;;;;;;;;;14.80;99.90;15.00;99624.00;;;;343411;28;83427;-90
2021/09/20 00:08:40;;;;;;;;;;;14.80;99.90;15.00;99623.00;;;;341423;28;92842;-90
2021/09/20 00:08:52;;;;;;;;;;;14.80;99.90;15.00;99627.00;;;;339340;28;83260;-90
2021/09/20 00:09:04;;;;;;;;;;;14.80;99.90;15.10;99624.00;;;;340261;28;91323;-90
2021/09/20 00:09:16;;;;;;;;;;;14.80;99.90;15.10;99626.00;;;;340753;28;83413;-90
2021/09/20 00:09:28;;;;;;;;;;;14.80;99.90;15.10;99620.00;;;;341681;28;89101;-90
2021/09/20 00:09:39;;;;;;;;;;;14.80;99.90;15.00;99621.00;;;;342154;28;83361;-90
2021/09/20 00:09:51;;;;;;;;;;;14.80;99.90;15.00;99628.00;;;;340303;28;91449;-90
2021/09/20 00:10:04;;;;;;;;;;;14.80;99.90;14.90;99632.00;;;;341967;28;83414;-90
2021/09/20 00:10:16;;;;;;;;;;;14.80;99.90;14.90;99622.00;;;;343003;28;91274;-90
2021/09/20 00:10:28;;;;;;;;;;;14.80;99.90;14.90;99623.00;;;;343494;28;83344;-89
2021/09/20 00:10:40;;;;;;;;;;;14.80;99.90;14.90;99628.00;;;;344142;28;91408;-90
2021/09/20 00:10:52;;;;;;;;;;;14.80;99.90;15.00;99629.00;;;;342136;28;82569;-90
2021/09/20 00:11:04;;;;;;;;;;;14.80;99.90;14.90;99624.00;;;;341526;28;89456;-89
2021/09/20 00:11:16;;;;;;;;;;;14.80;99.90;14.90;99627.00;;;;342114;28;82468;-90
2021/09/20 00:11:28;;;;;;;;;;;14.80;99.90;14.80;99638.00;;;;341619;28;92061;-90
2021/09/20 00:11:40;;;;;;;;;;;14.80;99.90;14.90;99623.00;;;;342115;28;82548;-90
2021/09/20 00:11:51;;;;;;;;;;;14.80;99.90;14.90;99625.00;;;;341601;28;91276;-90
2021/09/20 00:12:03;;;;;;;;;;;14.80;99.90;15.00;99621.00;;;;342010;28;83402;-90
2021/09/20 00:12:15;;;;;;;;;;;14.80;99.90;15.00;99624.00;;;;340293;28;90866;-90
2021/09/20 00:12:27;;;;;;;;;;;14.80;99.90;15.00;99620.00;;;;342161;28;82469;-90
2021/09/20 00:12:39;;;;;;;;;;;14.80;99.90;15.00;99621.00;;;;342840;28;92255;-89
2021/09/20 00:12:50;;;;;;;;;;;14.80;99.90;15.00;99616.00;;;;343402;28;83377;-90
2021/09/20 00:13:02;;;;;;;;;;;14.80;99.90;15.10;99618.00;;;;343018;28;91331;-90
2021/09/20 00:13:14;;;;;;;;;;;14.80;99.90;15.10;99622.00;;;;344686;28;82602;-90
2021/09/20 00:13:26;;;;;;;;;;;14.80;99.90;15.10;99625.00;;;;340146;28;91511;-90
2021/09/20 00:13:38;;;;;;;;;;;14.80;99.90;15.00;99620.00;;;;340814;28;82453;-90
2021/09/20 00:13:50;;;;;;;;;;;14.80;99.90;15.00;99625.00;;;;340306;28;91607;-90
2021/09/20 00:14:01;;;;;;;;;;;14.80;99.90;15.00;99629.00;;;;340431;28;83359;-90
2021/09/20 00:14:13;;;;;;;;;;;14.80;99.90;15.00;99621.00;;;;341527;28;91255;-90
2021/09/20 00:14:25;;;;;;;;;;;14.80;99.90;15.10;99625.00;;;;341906;28;82634;-89
2021/09/20 00:14:37;;;;;;;;;;;14.80;99.90;15.20;99626.00;;;;341612;28;91134;-90
2021/09/20 00:14:49;;;;;;;;;;;14.80;99.90;15.20;99625.00;;;;343372;28;83570;-89
2021/09/20 00:15:01;;;;;;;;;;;14.80;99.90;15.10;99624.00;;;;340429;28;90292;-90
2021/09/20 00:15:12;;;;;;;;;;;14.90;99.90;15.10;99618.00;;;;343480;28;82417;-90
2021/09/20 00:15:24;;;;;;;;;;;14.90;99.90;15.20;99631.00;;;;341626;28;90175;-90
2021/09/20 00:15:36;;;;;;;;;;;14.90;99.90;15.10;99629.00;;;;340811;28;82526;-90
2021/09/20 00:15:48;;;;;;;;;;;14.90;99.90;15.10;99634.00;;;;343069;28;89948;-90
2021/09/20 00:16:00;;;;;;;;;;;14.90;99.90;15.10;99623.00;;;;341925;28;82589;-90
2021/09/20 00:16:12;;;;;;;;;;;14.90;99.90;15.10;99624.00;;;;341699;28;89189;-90
2021/09/20 00:16:24;;;;;;;;;;;14.90;99.90;15.10;99615.00;;;;344817;28;83257;-91
2021/09/20 00:16:35;;;;;;;;;;;14.90;99.90;15.00;99622.00;;;;340218;28;92615;-90
2021/09/20 00:16:47;;;;;;;;;;;14.90;99.90;15.00;99625.00;;;;339168;28;83495;-90
2021/09/20 00:16:59;;;;;;;;;;;14.90;99.90;15.10;99625.00;;;;342976;28;91209;-90
2021/09/20 00:17:11;;;;;;;;;;;14.90;99.90;15.10;99621.00;;;;341764;28;83594;-90
2021/09/20 00:17:23;;;;;;;;;;;14.90;99.90;15.10;99618.00;;;;341596;28;91865;-90
2021/09/20 00:17:35;;;;;;;;;;;14.90;99.90;15.10;99624.00;;;;343425;28;83548;-90
2021/09/20 00:17:47;;;;;;;;;;;14.90;99.90;15.10;99621.00;;;;343008;28;91296;-90
2021/09/20 00:17:59;;;;;;;;;;;14.90;99.90;15.10;99626.00;;;;341883;28;83463;-90
2021/09/20 00:18:11;;;;;;;;;;;14.90;99.90;15.10;99625.00;;;;342962;28;91333;-90
2021/09/20 00:18:23;;;;;;;;;;;14.90;99.90;15.20;99623.00;;;;340697;28;83506;-90
2021/09/20 00:18:35;;;;;;;;;;;14.90;99.90;15.20;99619.00;;;;342956;28;92579;-90
2021/09/20 00:18:46;;;;;;;;;;;14.90;99.90;15.10;99617.00;;;;343421;28;83348;-90
2021/09/20 00:18:58;;;;;;;;;;;14.90;99.90;15.10;99622.00;;;;338908;28;90573;-90
2021/09/20 00:19:10;;;;;;;;;;;14.90;99.90;15.00;99625.00;;;;340579;28;83366;-90
2021/09/20 00:19:22;;;;;;;;;;;14.90;99.90;15.10;99620.00;;;;342889;28;91751;-90
2021/09/20 00:19:34;;;;;;;;;;;14.90;99.90;14.90;99620.00;;;;342068;28;83392;-90
2021/09/20 00:19:46;;;;;;;;;;;14.90;99.90;14.90;99615.00;;;;343027;28;91351;-90
2021/09/20 00:19:57;;;;;;;;;;;14.90;99.90;15.10;99617.00;;;;343448;28;82441;-90
2021/09/20 00:20:10;;;;;;;;;;;14.90;99.90;15.20;99628.00;;;;344271;28;92789;-90
2021/09/20 00:20:22;;;;;;;;;;;14.90;99.90;15.20;99626.00;;;;340657;28;82619;-90
2021/09/20 00:20:34;;;;;;;;;;;14.90;99.90;15.20;99624.00;;;;342913;28;92907;-90
2021/09/20 00:20:46;;;;;;;;;;;14.90;99.90;15.20;99620.00;;;;343273;28;82552;-90
2021/09/20 00:20:57;;;;;;;;;;;14.90;99.90;15.20;99623.00;;;;341619;28;91286;-89
2021/09/20 00:21:09;;;;;;;;;;;14.90;99.90;15.20;99625.00;;;;343432;28;82506;-90
2021/09/20 00:21:21;;;;;;;;;;;14.90;99.90;15.30;99626.00;;;;341559;28;91994;-90
2021/09/20 00:21:33;;;;;;;;;;;14.90;99.90;15.20;99622.00;;;;343445;28;83428;-90
2021/09/20 00:21:45;;;;;;;;;;;14.90;99.90;15.20;99623.00;;;;341660;28;90490;-90
2021/09/20 00:21:56;;;;;;;;;;;15.00;99.90;15.20;99621.00;;;;343395;28;83411;-90
2021/09/20 00:22:09;;;;;;;;;;;15.00;99.90;15.30;99626.00;;;;344394;28;87997;-91
2021/09/20 00:22:21;;;;;;;;;;;15.00;99.90;15.30;99625.00;;;;344730;28;83515;-90
2021/09/20 00:22:33;;;;;;;;;;;15.00;99.90;15.20;99625.00;;;;344293;28;91637;-90
2021/09/20 00:22:44;;;;;;;;;;;15.00;99.90;15.10;99625.00;;;;343375;28;83422;-90
2021/09/20 00:22:56;;;;;;;;;;;15.00;99.90;15.10;99622.00;;;;344451;28;89036;-90
2021/09/20 00:23:08;;;;;;;;;;;15.00;99.90;15.00;99617.00;;;;342165;28;83462;-90
2021/09/20 00:23:20;;;;;;;;;;;15.00;99.90;15.00;99620.00;;;;341578;28;90913;-91
2021/09/20 00:23:32;;;;;;;;;;;15.00;99.90;15.10;99620.00;;;;346166;28;82543;-90
2021/09/20 00:23:44;;;;;;;;;;;15.00;99.90;15.20;99620.00;;;;341641;28;90762;-90
2021/09/20 00:23:56;;;;;;;;;;;15.00;99.90;15.20;99622.00;;;;341994;28;83443;-90
2021/09/20 00:24:07;;;;;;;;;;;15.00;99.90;15.10;99620.00;;;;341556;28;91876;-90
2021/09/20 00:24:19;;;;;;;;;;;15.00;99.90;15.00;99619.00;;;;343323;28;83485;-90
2021/09/20 00:24:31;;;;;;;;;;;14.90;99.90;14.90;99622.00;;;;341499;28;92392;-90
2021/09/20 00:24:43;;;;;;;;;;;15.00;99.90;14.90;99623.00;;;;342042;28;82596;-90
2021/09/20 00:24:55;;;;;;;;;;;14.90;99.90;15.00;99617.00;;;;340352;28;90599;-90
2021/09/20 00:25:07;;;;;;;;;;;15.00;99.90;15.10;99622.00;;;;344803;28;83342;-91
2021/09/20 00:25:18;;;;;;;;;;;15.00;99.90;15.00;99618.00;;;;338972;28;87908;-90
2021/09/20 00:25:30;;;;;;;;;;;14.90;99.90;14.90;99619.00;;;;339430;28;82517;-90
2021/09/20 00:25:42;;;;;;;;;;;14.90;99.90;15.00;99621.00;;;;345789;28;91540;-90
2021/09/20 00:25:56;;;;;;;;;;;14.90;99.90;15.00;99614.00;;;;343459;28;82473;-90
2021/09/20 00:26:08;;;;;;;;;;;14.90;99.90;15.10;99617.00;;;;342671;28;90618;-90
2021/09/20 00:26:20;;;;;;;;;;;14.90;99.90;15.20;99620.00;;;;343362;28;82551;-90
2021/09/20 00:26:32;;;;;;;;;;;15.00;99.90;15.20;99622.00;;;;341637;28;92499;-90
2021/09/20 00:26:44;;;;;;;;;;;15.00;99.90;15.20;99622.00;;;;345942;28;82611;-90
2021/09/20 00:26:55;;;;;;;;;;;15.00;99.90;15.10;99621.00;;;;342962;28;91481;-90
2021/09/20 00:27:08;;;;;;;;;;;14.90;99.90;15.20;99620.00;;;;344800;28;82477;-90
2021/09/20 00:27:19;;;;;;;;;;;14.90;99.90;15.20;99623.00;;;;344104;28;91562;-90
2021/09/20 00:27:31;;;;;;;;;;;15.00;99.90;15.20;99621.00;;;;343508;28;82563;-90
2021/09/20 00:27:43;;;;;;;;;;;14.90;99.90;15.10;99615.00;;;;344392;28;92266;-90
2021/09/20 00:27:55;;;;;;;;;;;15.00;99.90;15.10;99614.00;;;;343369;28;83379;-90
2021/09/20 00:28:07;;;;;;;;;;;15.00;99.90;15.00;99617.00;;;;341604;28;90230;-90
2021/09/20 00:28:20;;;;;;;;;;;14.90;99.90;15.00;99621.00;;;;343339;28;83403;-90
2021/09/20 00:28:32;;;;;;;;;;;15.00;99.90;15.10;99620.00;;;;338874;28;92906;-90
2021/09/20 00:28:43;;;;;;;;;;;15.00;99.90;15.20;99618.00;;;;344746;28;83457;-90
2021/09/20 00:28:55;;;;;;;;;;;15.00;99.90;15.30;99614.00;;;;341667;28;91350;-90
2021/09/20 00:29:07;;;;;;;;;;;14.90;99.90;15.40;99618.00;;;;340410;28;82757;-90
2021/09/20 00:29:19;;;;;;;;;;;15.00;99.90;15.30;99617.00;;;;342866;28;91700;-90
2021/09/20 00:29:30;;;;;;;;;;;15.00;99.90;15.20;99620.00;;;;344695;28;83440;-90
2021/09/20 00:29:42;;;;;;;;;;;15.00;99.90;15.30;99621.00;;;;342665;28;90313;-90
2021/09/20 00:29:54;;;;;;;;;;;15.00;99.90;15.20;99614.00;;;;342080;28;83455;-90
2021/09/20 00:30:06;;;;;;;;;;;15.00;99.90;15.20;99621.00;;;;341595;28;90136;-90
2021/09/20 00:30:18;;;;;;;;;;;14.90;99.90;15.10;99617.00;;;;344794;28;83410;-90
2021/09/20 00:30:30;;;;;;;;;;;15.00;99.90;15.10;99617.00;;;;342936;28;91495;-90
2021/09/20 00:30:42;;;;;;;;;;;15.00;99.90;15.10;99613.00;;;;344785;28;83541;-90
2021/09/20 00:30:54;;;;;;;;;;;15.00;99.90;15.10;99616.00;;;;340335;28;90489;-90
2021/09/20 00:31:05;;;;;;;;;;;15.00;99.90;15.10;99623.00;;;;342102;28;82482;-90
2021/09/20 00:31:17;;;;;;;;;;;15.00;99.90;15.10;99617.00;;;;344349;28;90474;-90
2021/09/20 00:31:29;;;;;;;;;;;15.00;99.90;15.10;99621.00;;;;341984;28;83398;-90
2021/09/20 00:31:41;;;;;;;;;;;15.00;99.90;15.00;99624.00;;;;341682;28;91118;-90
2021/09/20 00:31:53;;;;;;;;;;;15.00;99.90;14.90;99614.00;;;;342168;28;82416;-90
2021/09/20 00:32:05;;;;;;;;;;;15.00;99.90;15.00;99616.00;;;;341471;28;90744;-90
2021/09/20 00:32:18;;;;;;;;;;;14.90;99.90;14.90;99620.00;;;;339454;28;82508;-90
2021/09/20 00:32:30;;;;;;;;;;;14.90;99.90;15.00;99619.00;;;;340360;28;88738;-90
2021/09/20 00:32:42;;;;;;;;;;;14.90;99.90;15.00;99617.00;;;;340728;28;83382;-90
2021/09/20 00:32:54;;;;;;;;;;;14.90;99.90;15.00;99615.00;;;;342999;28;90499;-90
2021/09/20 00:33:07;;;;;;;;;;;14.90;99.90;15.10;99609.00;;;;340748;28;83350;-90
2021/09/20 00:33:18;;;;;;;;;;;14.90;99.90;15.20;99622.00;;;;340242;28;89832;-90
2021/09/20 00:33:30;;;;;;;;;;;14.90;99.90;15.10;99621.00;;;;343375;28;83515;-90
2021/09/20 00:33:42;;;;;;;;;;;15.00;99.90;15.10;99618.00;;;;341458;28;91901;-90
2021/09/20 00:33:54;;;;;;;;;;;15.00;99.90;15.10;99613.00;;;;343484;28;82420;-90
2021/09/20 00:34:06;;;;;;;;;;;15.00;99.90;15.00;99614.00;;;;342958;28;90110;-90
2021/09/20 00:34:18;;;;;;;;;;;15.00;99.90;15.00;99613.00;;;;340675;28;83358;-90
2021/09/20 00:34:30;;;;;;;;;;;14.90;99.90;15.00;99618.00;;;;338882;28;91305;-90
2021/09/20 00:34:42;;;;;;;;;;;15.00;99.90;15.10;99616.00;;;;343384;28;83346;-90
2021/09/20 00:34:54;;;;;;;;;;;15.00;99.90;15.10;99612.00;;;;342995;28;91951;-90
2021/09/20 00:35:06;;;;;;;;;;;14.90;99.90;15.10;99614.00;;;;340499;28;83712;-89
2021/09/20 00:35:18;;;;;;;;;;;15.00;99.90;15.00;99613.00;;;;343010;28;90646;-90
2021/09/20 00:35:29;;;;;;;;;;;15.00;99.90;15.10;99614.00;;;;341891;28;82586;-90
2021/09/20 00:35:41;;;;;;;;;;;14.90;99.90;15.20;99621.00;;;;338937;28;91225;-90
2021/09/20 00:35:53;;;;;;;;;;;15.00;99.90;15.30;99618.00;;;;340595;28;83350;-90
2021/09/20 00:36:05;;;;;;;;;;;15.00;99.90;15.30;99622.00;;;;342985;28;90395;-90
2021/09/20 00:36:17;;;;;;;;;;;15.00;99.90;15.10;99620.00;;;;340654;28;83452;-90
2021/09/20 00:36:29;;;;;;;;;;;15.00;99.90;15.10;99618.00;;;;341511;28;92703;-90
2021/09/20 00:36:41;;;;;;;;;;;15.00;99.90;15.10;99607.00;;;;340737;28;82559;-90
2021/09/20 00:36:53;;;;;;;;;;;15.00;99.90;15.10;99612.00;;;;343022;28;91571;-90
2021/09/20 00:37:04;;;;;;;;;;;15.00;99.90;15.10;99620.00;;;;343469;28;82484;-90
2021/09/20 00:37:17;;;;;;;;;;;15.00;99.90;15.10;99615.00;;;;341648;28;91372;-90
2021/09/20 00:37:29;;;;;;;;;;;15.00;99.90;15.00;99620.00;;;;343301;28;83613;-91
2021/09/20 00:37:41;;;;;;;;;;;15.00;99.90;15.00;99616.00;;;;343042;28;91419;-91
2021/09/20 00:37:53;;;;;;;;;;;15.00;99.90;15.10;99620.00;;;;338047;28;83479;-90
2021/09/20 00:38:04;;;;;;;;;;;15.00;99.90;15.00;99610.00;;;;340171;28;90953;-90
2021/09/20 00:38:16;;;;;;;;;;;15.00;99.90;15.10;99617.00;;;;342059;28;83506;-90
2021/09/20 00:38:28;;;;;;;;;;;15.00;99.90;14.90;99617.00;;;;341478;28;92440;-90
2021/09/20 00:38:40;;;;;;;;;;;15.00;99.90;15.00;99615.00;;;;342032;28;83374;-90
2021/09/20 00:38:51;;;;;;;;;;;14.90;99.90;15.20;99618.00;;;;342890;28;91621;-90
2021/09/20 00:39:03;;;;;;;;;;;15.00;99.90;15.30;99623.00;;;;342053;28;83333;-90
2021/09/20 00:39:15;;;;;;;;;;;15.00;99.90;15.30;99623.00;;;;340272;28;91401;-90
2021/09/20 00:39:27;;;;;;;;;;;15.00;99.90;15.30;99620.00;;;;340618;28;83434;-90
2021/09/20 00:39:39;;;;;;;;;;;15.00;99.90;15.30;99618.00;;;;342945;28;91030;-90
2021/09/20 00:39:50;;;;;;;;;;;15.00;99.90;15.20;99620.00;;;;342071;28;82488;-90
2021/09/20 00:40:03;;;;;;;;;;;15.00;99.90;15.10;99615.00;;;;338997;28;90160;-91
2021/09/20 00:40:15;;;;;;;;;;;15.00;99.90;15.10;99619.00;;;;342001;28;83334;-90
2021/09/20 00:40:27;;;;;;;;;;;15.00;99.90;15.10;99613.00;;;;342882;28;92668;-90
2021/09/20 00:40:38;;;;;;;;;;;15.00;99.90;15.10;99617.00;;;;341936;28;82563;-92
2021/09/20 00:40:50;;;;;;;;;;;15.00;99.90;15.10;99615.00;;;;341666;28;91690;-91
2021/09/20 00:41:03;;;;;;;;;;;15.00;99.90;15.10;99621.00;;;;343412;28;83406;-91
2021/09/20 00:41:14;;;;;;;;;;;14.90;99.90;15.10;99623.00;;;;344365;28;92222;-90
2021/09/20 00:41:26;;;;;;;;;;;14.90;99.90;15.20;99619.00;;;;343346;28;82505;-90
2021/09/20 00:41:38;;;;;;;;;;;15.00;99.90;15.30;99621.00;;;;344309;28;91196;-91
2021/09/20 00:41:50;;;;;;;;;;;15.00;99.90;15.30;99621.00;;;;342052;28;83380;-91
2021/09/20 00:42:02;;;;;;;;;;;15.00;99.90;15.30;99621.00;;;;341627;28;91392;-91
2021/09/20 00:42:15;;;;;;;;;;;15.00;99.90;15.30;99628.00;;;;343419;28;83432;-90
2021/09/20 00:42:27;;;;;;;;;;;15.00;99.90;15.30;99619.00;;;;341467;28;92484;-91
2021/09/20 00:42:38;;;;;;;;;;;15.00;99.90;15.30;99622.00;;;;341977;28;83374;-90
2021/09/20 00:42:50;;;;;;;;;;;15.00;99.90;15.30;99619.00;;;;338945;28;91737;-91
2021/09/20 00:43:03;;;;;;;;;;;15.00;99.90;15.40;99622.00;;;;342098;28;82447;-90
2021/09/20 00:43:15;;;;;;;;;;;15.00;99.90;15.30;99624.00;;;;341515;28;90843;-90
2021/09/20 00:43:26;;;;;;;;;;;15.00;99.90;15.30;99619.00;;;;343377;28;82510;-90
2021/09/20 00:43:38;;;;;;;;;;;15.00;99.90;15.20;99621.00;;;;344304;28;91549;-90
2021/09/20 00:43:50;;;;;;;;;;;15.00;99.90;15.20;99620.00;;;;342079;28;83319;-90
2021/09/20 00:44:03;;;;;;;;;;;15.00;99.90;15.20;99617.00;;;;340249;28;91159;-89
2021/09/20 00:44:14;;;;;;;;;;;15.00;99.90;15.20;99617.00;;;;340697;28;83358;-90
2021/09/20 00:44:26;;;;;;;;;;;15.00;99.90;15.30;99618.00;;;;341553;28;92841;-90
2021/09/20 00:44:38;;;;;;;;;;;15.00;99.90;15.30;99619.00;;;;342029;28;82479;-91
2021/09/20 00:44:50;;;;;;;;;;;15.00;99.90;15.30;99614.00;;;;342966;28;91627;-90
2021/09/20 00:45:04;;;;;;;;;;;15.00;99.90;15.20;99621.00;;;;343451;28;83366;-90
2021/09/20 00:45:16;;;;;;;;;;;15.00;99.90;15.10;99627.00;;;;340350;28;91844;-90
2021/09/20 00:45:28;;;;;;;;;;;15.00;99.90;15.10;99623.00;;;;343373;28;83464;-90
2021/09/20 00:45:40;;;;;;;;;;;15.00;99.90;15.30;99624.00;;;;341627;28;89875;-90
2021/09/20 00:45:51;;;;;;;;;;;15.00;99.90;15.40;99624.00;;;;340791;28;82493;-90
2021/09/20 00:46:04;;;;;;;;;;;15.00;99.90;15.30;99628.00;;;;341594;28;91809;-91
2021/09/20 00:46:16;;;;;;;;;;;15.00;99.90;15.30;99621.00;;;;342061;28;82501;-90
2021/09/20 00:46:28;;;;;;;;;;;15.00;99.90;15.30;99614.00;;;;338967;28;91786;-91
2021/09/20 00:46:40;;;;;;;;;;;15.00;99.90;15.30;99623.00;;;;344729;28;83954;-90
2021/09/20 00:46:52;;;;;;;;;;;15.00;99.90;15.20;99618.00;;;;340330;28;90175;-90
2021/09/20 00:47:04;;;;;;;;;;;15.00;99.90;15.20;99614.00;;;;340614;28;82467;-90
2021/09/20 00:47:16;;;;;;;;;;;15.00;99.90;15.10;99622.00;;;;341545;28;90772;-90
2021/09/20 00:47:27;;;;;;;;;;;15.00;99.90;15.20;99622.00;;;;341939;28;82514;-90
2021/09/20 00:47:39;;;;;;;;;;;15.00;99.90;15.20;99618.00;;;;338953;28;90526;-90
2021/09/20 00:47:51;;;;;;;;;;;15.00;99.90;15.20;99621.00;;;;340697;28;83402;-90
2021/09/20 00:48:03;;;;;;;;;;;15.00;99.90;15.20;99617.00;;;;341621;28;90470;-90
2021/09/20 00:48:15;;;;;;;;;;;15.00;99.90;15.20;99617.00;;;;339370;28;82551;-90
2021/09/20 00:48:27;;;;;;;;;;;15.00;99.90;15.20;99618.00;;;;342944;28;91921;-90
2021/09/20 00:48:39;;;;;;;;;;;15.00;99.90;15.30;99618.00;;;;342004;28;83510;-90
2021/09/20 00:48:50;;;;;;;;;;;15.10;99.90;15.30;99617.00;;;;340222;28;90328;-90
2021/09/20 00:49:03;;;;;;;;;;;15.00;99.90;15.40;99615.00;;;;343399;28;83771;-91
2021/09/20 00:49:15;;;;;;;;;;;15.00;99.90;15.30;99617.00;;;;338945;28;89047;-90
2021/09/20 00:49:27;;;;;;;;;;;15.10;99.90;15.20;99619.00;;;;340584;28;83583;-90
2021/09/20 00:49:39;;;;;;;;;;;15.10;99.90;15.20;99612.00;;;;344277;28;89225;-90
2021/09/20 00:49:51;;;;;;;;;;;15.00;99.90;15.10;99608.00;;;;342080;28;82530;-90
2021/09/20 00:50:03;;;;;;;;;;;15.00;99.90;15.00;99606.00;;;;342982;28;91225;-90
2021/09/20 00:50:15;;;;;;;;;;;15.00;99.90;15.00;99615.00;;;;339419;28;83351;-90
2021/09/20 00:50:27;;;;;;;;;;;15.00;99.90;14.90;99615.00;;;;341681;28;92700;-90
2021/09/20 00:50:39;;;;;;;;;;;15.00;99.90;15.10;99613.00;;;;344739;28;83417;-91
2021/09/20 00:50:51;;;;;;;;;;;15.00;99.90;15.10;99613.00;;;;341645;28;90471;-90
2021/09/20 00:51:03;;;;;;;;;;;15.00;99.90;15.00;99612.00;;;;341848;28;83621;-90
2021/09/20 00:51:15;;;;;;;;;;;15.00;99.90;15.00;99606.00;;;;340315;28;91380;-90
2021/09/20 00:51:27;;;;;;;;;;;15.00;99.90;14.90;99618.00;;;;340619;28;83593;-90
2021/09/20 00:51:38;;;;;;;;;;;15.00;99.90;15.00;99608.00;;;;341656;28;90515;-90
2021/09/20 00:51:50;;;;;;;;;;;14.90;99.90;15.20;99616.00;;;;340807;28;82409;-90
2021/09/20 00:52:02;;;;;;;;;;;15.00;99.90;15.20;99619.00;;;;340244;28;91472;-90
2021/09/20 00:52:14;;;;;;;;;;;15.00;99.90;15.20;99613.00;;;;342033;28;83476;-90
2021/09/20 00:52:26;;;;;;;;;;;15.00;99.90;15.10;99609.00;;;;340244;28;91264;-90
2021/09/20 00:52:38;;;;;;;;;;;15.00;99.90;15.10;99612.00;;;;342128;28;82559;-90
2021/09/20 00:52:49;;;;;;;;;;;15.00;99.90;15.00;99614.00;;;;341540;28;91128;-90
2021/09/20 00:53:01;;;;;;;;;;;14.90;99.90;15.20;99622.00;;;;340625;28;83404;-90
2021/09/20 00:53:13;;;;;;;;;;;15.00;99.90;15.20;99616.00;;;;340425;28;89966;-90
2021/09/20 00:53:25;;;;;;;;;;;15.00;99.90;15.20;99616.00;;;;340625;28;82484;-91
2021/09/20 00:53:37;;;;;;;;;;;15.00;99.90;15.10;99618.00;;;;340282;28;90495;-90
2021/09/20 00:53:49;;;;;;;;;;;14.90;99.90;15.10;99617.00;;;;342017;28;83520;-90
2021/09/20 00:54:00;;;;;;;;;;;15.00;99.90;15.00;99621.00;;;;337598;28;90806;-90
2021/09/20 00:54:12;;;;;;;;;;;15.00;99.90;15.10;99625.00;;;;341844;28;83522;-90
2021/09/20 00:54:24;;;;;;;;;;;15.00;99.90;15.10;99614.00;;;;340261;28;91990;-90
2021/09/20 00:54:36;;;;;;;;;;;15.00;99.90;15.10;99618.00;;;;339351;28;82561;-90
2021/09/20 00:54:50;;;;;;;;;;;15.00;99.90;15.00;99627.00;;;;340180;28;91554;-90
2021/09/20 00:55:03;;;;;;;;;;;15.00;99.90;14.90;99624.00;;;;340641;28;82583;-90
2021/09/20 00:55:15;;;;;;;;;;;14.90;99.90;14.90;99614.00;;;;341373;28;90664;-90
2021/09/20 00:55:27;;;;;;;;;;;14.90;99.90;14.90;99623.00;;;;341910;28;82604;-90
2021/09/20 00:55:40;;;;;;;;;;;14.90;99.90;14.90;99615.00;;;;341600;28;90438;-90
2021/09/20 00:55:52;;;;;;;;;;;14.90;99.90;15.00;99616.00;;;;342012;28;83432;-90
2021/09/20 00:56:04;;;;;;;;;;;14.90;99.90;15.10;99619.00;;;;340266;28;90597;-90
2021/09/20 00:56:16;;;;;;;;;;;14.90;99.90;15.10;99612.00;;;;340692;28;83323;-90
2021/09/20 00:56:28;;;;;;;;;;;14.90;99.90;15.20;99615.00;;;;341573;28;92316;-90
2021/09/20 00:56:40;;;;;;;;;;;14.90;99.90;15.20;99619.00;;;;340666;28;83346;-90
2021/09/20 00:56:52;;;;;;;;;;;15.00;99.90;15.20;99624.00;;;;341475;28;91327;-90
2021/09/20 00:57:04;;;;;;;;;;;15.00;99.90;15.10;99617.00;;;;342073;28;82424;-90
2021/09/20 00:57:16;;;;;;;;;;;15.00;99.90;15.10;99619.00;;;;340345;28;89760;-90
2021/09/20 00:57:28;;;;;;;;;;;15.00;99.90;15.00;99619.00;;;;343323;28;83395;-89
2021/09/20 00:57:40;;;;;;;;;;;15.00;99.90;15.00;99619.00;;;;341683;28;88830;-89
2021/09/20 00:57:52;;;;;;;;;;;15.00;99.90;15.00;99626.00;;;;343332;28;82619;-90
2021/09/20 00:58:04;;;;;;;;;;;14.90;99.90;15.10;99615.00;;;;341526;28;90416;-90
2021/09/20 00:58:15;;;;;;;;;;;14.90;99.90;15.10;99617.00;;;;341894;28;83546;-90
2021/09/20 00:58:27;;;;;;;;;;;14.90;99.90;15.10;99612.00;;;;340305;28;91128;-90
2021/09/20 00:58:39;;;;;;;;;;;14.90;99.90;15.00;99618.00;;;;340576;28;83457;-89
2021/09/20 00:58:51;;;;;;;;;;;14.90;99.90;15.00;99609.00;;;;340207;28;91187;-89
2021/09/20 00:59:03;;;;;;;;;;;14.90;99.90;15.10;99608.00;;;;339361;28;83430;-90